Řízení letového provozu České republiky
Letiste: LKKB Aktualizace: 27.02.2017 11:06:08  UTC
 METAR LKKB 27.02. 11:00 ...
METAR LKKB 271100Z 20007KT 120V230 CAVOK 12/M02 Q1009 NOSIG =
 TAF LKKB 27.02. 05:00 ...
TAF LKKB 270500Z 2706/2806 17008KT CAVOK=